createdAt,value
2018-06-22T03:37:37.367Z,13
2018-06-22T03:38:27.169Z,13.1
2018-06-22T03:39:17.533Z,13.1
2018-06-22T03:40:07.328Z,13.1
2018-06-22T03:40:57.653Z,13.1
2018-06-22T03:41:47.721Z,13.1
2018-06-22T03:42:37.210Z,13.1
2018-06-22T03:43:27.540Z,13.1
2018-06-22T03:44:17.608Z,13.1
2018-06-22T03:45:07.950Z,13.1
2018-06-22T03:45:57.750Z,13.2
2018-06-22T03:46:48.120Z,13.2
2018-06-22T03:47:38.144Z,13.2
2018-06-22T03:48:28.230Z,13.2
2018-06-22T03:49:18.006Z,13.3
2018-06-22T03:50:07.787Z,13.3
2018-06-22T03:50:58.389Z,13.3
2018-06-22T03:51:47.897Z,13.3
2018-06-22T03:52:38.522Z,13.3
2018-06-22T03:53:28.306Z,13.4
2018-06-22T03:54:18.654Z,13.4
2018-06-22T03:55:08.711Z,13.4
2018-06-22T03:55:58.501Z,13.4
2018-06-22T03:56:48.680Z,13.4
2018-06-22T03:57:38.350Z,13.5
2018-06-22T03:58:29.013Z,13.5
2018-06-22T03:59:19.031Z,13.6
2018-06-22T04:00:09.114Z,13.6
2018-06-22T04:00:58.891Z,13.6
2018-06-22T04:01:48.942Z,13.7
2018-06-22T04:02:39.294Z,13.8
2018-06-22T04:03:28.807Z,13.8
2018-06-22T04:04:19.134Z,13.8
2018-06-22T04:05:09.195Z,13.9
2018-06-22T04:05:59.274Z,13.9
2018-06-22T04:06:49.607Z,14
2018-06-22T04:07:39.702Z,14.1
2018-06-22T04:08:29.754Z,14.1
2018-06-22T04:09:19.544Z,14.2
2018-06-22T04:10:09.303Z,14.3
2018-06-22T04:10:59.954Z,14.3
2018-06-22T04:11:49.725Z,14.4
2018-06-22T04:12:39.790Z,14.4
2018-06-22T04:13:30.127Z,14.5
2018-06-22T04:14:20.181Z,14.6
2018-06-22T04:15:10.248Z,14.7
2018-06-22T04:16:00.335Z,14.7
2018-06-22T04:16:50.097Z,14.8
2018-06-22T04:17:40.430Z,14.9
2018-06-22T04:18:30.217Z,14.9
2018-06-22T04:19:20.288Z,15
2018-06-22T04:20:10.362Z,15.1
2018-06-22T04:21:00.696Z,15.2
2018-06-22T04:21:50.752Z,15.3
2018-06-22T04:22:40.548Z,15.3
2018-06-22T04:23:30.600Z,15.4
2018-06-22T04:24:20.751Z,15.5
2018-06-22T04:25:11.054Z,15.6
2018-06-22T04:26:01.095Z,15.6
2018-06-22T04:26:50.861Z,15.8
2018-06-22T04:27:41.201Z,15.8
2018-06-22T04:28:31.271Z,15.9
2018-06-22T04:29:21.331Z,16
2018-06-22T04:30:11.419Z,16.1
2018-06-22T04:31:01.202Z,16.2
2018-06-22T04:31:51.546Z,16.3
2018-06-22T04:32:41.584Z,16.3
2018-06-22T04:33:31.659Z,16.4
2018-06-22T04:34:21.453Z,16.5
2018-06-22T04:35:11.515Z,16.6
2018-06-22T04:36:01.866Z,16.7
2018-06-22T04:36:51.939Z,16.8
2018-06-22T04:37:41.997Z,16.9
2018-06-22T04:38:32.129Z,16.9
2018-06-22T04:39:22.105Z,17.1
2018-06-22T04:40:11.883Z,17.1
2018-06-22T04:41:01.972Z,17.3
2018-06-22T04:41:52.293Z,17.3
2018-06-22T04:42:41.790Z,17.4
2018-06-22T04:43:32.426Z,17.5
2018-06-22T04:44:22.501Z,17.6
2018-06-22T04:45:12.273Z,17.7
2018-06-22T04:46:02.629Z,17.8
2018-06-22T04:46:52.414Z,17.9
2018-06-22T04:47:43.046Z,18.1
2018-06-22T04:48:32.264Z,18.1
2018-06-22T04:49:22.873Z,18.3
2018-06-22T04:50:12.974Z,18.4
2018-06-22T04:51:03.005Z,18.4
2018-06-22T04:51:52.803Z,18.6
2018-06-22T04:53:32.927Z,18.8
2018-06-22T04:54:23.271Z,18.9
2018-06-22T04:55:13.336Z,19
2018-06-22T04:56:03.384Z,19.1
2018-06-22T04:56:53.446Z,19.3
2018-06-22T04:57:43.245Z,19.4
2018-06-22T04:58:33.574Z,19.5
2018-06-22T04:59:23.642Z,19.6
2018-06-22T05:00:13.724Z,19.7
2018-06-22T05:01:03.779Z,19.8
2018-06-22T05:01:53.842Z,19.9
2018-06-22T05:02:43.357Z,20.1
2018-06-22T05:03:34.116Z,20.2
2018-06-22T05:04:23.764Z,20.3
2018-06-22T05:05:14.138Z,20.4
2018-06-22T05:06:04.186Z,20.6
2018-06-22T05:06:53.669Z,20.7
2018-06-22T05:07:44.294Z,20.8
2018-06-22T05:08:34.370Z,20.9
2018-06-22T05:09:24.638Z,21.1
2018-06-22T05:10:14.511Z,21.3
2018-06-22T05:11:04.280Z,21.4
2018-06-22T05:11:54.604Z,21.6
2018-06-22T05:12:44.702Z,21.8
2018-06-22T05:13:34.760Z,21.9
2018-06-22T05:14:24.819Z,22.1
2018-06-22T05:15:14.872Z,22.3
2018-06-22T05:16:04.940Z,22.4
2018-06-22T05:16:54.740Z,22.6
2018-06-22T05:17:45.090Z,22.8
2018-06-22T05:18:34.845Z,23
2018-06-22T05:19:25.202Z,23.2
2018-06-22T05:20:15.269Z,23.4
2018-06-22T05:21:05.052Z,23.6
2018-06-22T05:21:55.383Z,23.8
2018-06-22T05:22:45.756Z,24.1
2018-06-22T05:23:35.518Z,24.3
2018-06-22T05:24:25.597Z,24.5
2018-06-22T05:25:15.676Z,24.7
2018-06-22T05:26:05.722Z,24.9
2018-06-22T05:26:55.193Z,25.2
2018-06-22T05:27:45.851Z,25.4
2018-06-22T05:28:35.613Z,25.6
2018-06-22T05:29:25.680Z,25.9
2018-06-22T05:30:16.220Z,26.1
2018-06-22T05:31:05.798Z,26.3
2018-06-22T05:31:56.193Z,26.6
2018-06-22T05:32:46.215Z,26.8
2018-06-22T05:33:36.018Z,27.1
2018-06-22T05:34:26.322Z,27.3
2018-06-22T05:35:16.432Z,27.6
2018-06-22T05:36:56.595Z,28.1
2018-06-22T05:37:46.047Z,23.8
2018-06-22T05:38:36.671Z,21.5
2018-06-22T05:39:26.208Z,29.3
2018-06-22T05:40:16.790Z,32.6
2018-06-22T05:41:06.851Z,33.1
2018-06-22T05:41:56.640Z,33.3
2018-06-22T05:42:46.997Z,33.4
2018-06-22T05:43:37.051Z,33.4
2018-06-22T05:44:26.849Z,33.3
2018-06-22T05:45:16.892Z,33.1
2018-06-22T05:46:06.676Z,32.9
2018-06-22T05:46:57.301Z,32.8
2018-06-22T05:47:47.104Z,32.8
2018-06-22T05:48:37.449Z,32.7
2018-06-22T05:49:27.213Z,32.6
2018-06-22T05:50:17.581Z,32.6
2018-06-22T05:51:07.352Z,32.6
2018-06-22T05:51:57.735Z,32.6
2018-06-22T05:52:47.494Z,32.6
2018-06-22T05:53:37.833Z,32.6
2018-06-22T05:54:27.899Z,32.8
2018-06-22T05:55:17.665Z,32.8
2018-06-22T05:56:08.016Z,32.9
2018-06-22T05:56:58.076Z,33.2
2018-06-22T05:57:48.126Z,33.1
2018-06-22T05:58:38.208Z,30.9
2018-06-22T05:59:27.702Z,30.8
2018-06-22T06:00:18.039Z,32.5
2018-06-22T06:01:08.395Z,33.4
2018-06-22T06:01:58.193Z,33.4
2018-06-22T06:02:48.525Z,33.3
2018-06-22T06:03:39.005Z,33
2018-06-22T06:04:28.080Z,32.8
2018-06-22T06:05:18.726Z,32.7
2018-06-22T06:06:08.773Z,32.8
2018-06-22T06:06:58.845Z,33.1
2018-06-22T06:07:48.912Z,33.3
2018-06-22T06:08:38.705Z,33.4
2018-06-22T06:09:29.031Z,33.4
2018-06-22T06:10:18.825Z,33.5
2018-06-22T06:11:09.353Z,33.6
2018-06-22T06:11:59.227Z,33.7
2018-06-22T06:12:49.283Z,33.8
2018-06-22T06:13:39.361Z,33.9
2018-06-22T06:14:29.408Z,34.1
2018-06-22T06:15:19.496Z,34.2
2018-06-22T06:16:09.545Z,34.3
2018-06-22T06:16:59.685Z,34.4
2018-06-22T06:17:49.669Z,34.5
2018-06-22T06:18:39.951Z,34.6
2018-06-22T06:19:29.824Z,34.8
2018-06-22T06:20:19.594Z,34.9
2018-06-22T06:21:09.943Z,35
2018-06-22T06:21:59.993Z,35.1
2018-06-22T06:22:50.080Z,35.3
2018-06-22T06:23:40.142Z,35.4
2018-06-22T06:24:29.932Z,35.5
2018-06-22T06:25:20.282Z,35.6
2018-06-22T06:26:10.313Z,35.8
2018-06-22T06:27:00.120Z,35.9
2018-06-22T06:27:50.472Z,36
2018-06-22T06:28:40.250Z,36.1
2018-06-22T06:29:30.585Z,36.3
2018-06-22T06:30:20.654Z,36.4
2018-06-22T06:31:10.744Z,36.5
2018-06-22T06:32:00.545Z,36.6
2018-06-22T06:32:50.869Z,36.8
2018-06-22T06:33:40.924Z,36.9
2018-06-22T06:34:31.017Z,36.9
2018-06-22T06:35:21.055Z,37.1
2018-06-22T06:36:11.112Z,37.2
2018-06-22T06:37:01.158Z,37.3
2018-06-22T06:37:51.230Z,37.4
2018-06-22T06:38:41.289Z,37.6
2018-06-22T06:39:31.393Z,37.7
2018-06-22T06:40:21.436Z,37.8
2018-06-22T06:41:11.480Z,37.9
2018-06-22T06:42:01.290Z,38.1
2018-06-22T06:42:51.337Z,38.2
2018-06-22T06:43:41.393Z,38.3
2018-06-22T06:44:31.750Z,38.3
2018-06-22T06:45:21.798Z,38.4
2018-06-22T06:46:11.894Z,38.6
2018-06-22T06:47:01.960Z,38.8
2018-06-22T06:47:51.987Z,38.9
2018-06-22T06:48:41.513Z,38.9
2018-06-22T06:49:32.379Z,39.1
2018-06-22T06:50:22.196Z,38.9
2018-06-22T06:51:12.252Z,38.9
2018-06-22T06:52:02.322Z,39
2018-06-22T06:52:52.386Z,39.1
2018-06-22T06:53:42.183Z,39.3
2018-06-22T06:54:32.528Z,39.4
2018-06-22T06:55:22.587Z,39.5
2018-06-22T06:56:12.664Z,39.6
2018-06-22T06:57:02.735Z,39.7
2018-06-22T06:57:52.274Z,39.8
2018-06-22T06:58:42.848Z,39.8
2018-06-22T06:59:32.949Z,39.9
2018-06-22T07:00:22.974Z,40.1
2018-06-22T07:01:13.033Z,40.2
2018-06-22T07:02:03.094Z,40.3
2018-06-22T07:02:53.157Z,40.5
2018-06-22T07:03:42.664Z,40.6
2018-06-22T07:04:33.016Z,40.7
2018-06-22T07:05:23.361Z,40.8
2018-06-22T07:06:13.440Z,40.9
2018-06-22T07:07:03.516Z,41.1
2018-06-22T07:07:53.578Z,41.2
2018-06-22T07:08:43.331Z,41.3
2018-06-22T07:09:33.681Z,41.4
2018-06-22T07:10:23.771Z,41.6
2018-06-22T07:11:13.817Z,41.8
2018-06-22T07:12:03.893Z,41.8
2018-06-22T07:12:53.941Z,41.9
2018-06-22T07:13:43.716Z,42.1
2018-06-22T07:14:34.094Z,42.2
2018-06-22T07:15:24.133Z,42.3
2018-06-22T07:16:14.209Z,42.4
2018-06-22T07:17:04.304Z,42.6
2018-06-22T07:17:54.357Z,42.7
2018-06-22T07:18:44.390Z,42.8
2018-06-22T07:19:34.202Z,42.9
2018-06-22T07:20:24.525Z,43.1
2018-06-22T07:21:14.594Z,43.2
2018-06-22T07:22:04.666Z,43.3
2018-06-22T07:22:54.715Z,43.4
2018-06-22T07:23:44.817Z,43.6
2018-06-22T07:24:34.594Z,43.4
2018-06-22T07:25:24.399Z,42.8
2018-06-22T07:26:14.967Z,42.4
2018-06-22T07:27:05.055Z,42.5
2018-06-22T07:27:55.122Z,42.6
2018-06-22T07:28:45.171Z,42.8
2018-06-22T07:29:34.946Z,43
2018-06-22T07:30:25.033Z,43.2
2018-06-22T07:31:15.386Z,43.1
2018-06-22T07:32:05.480Z,42.9
2018-06-22T07:32:55.208Z,43
2018-06-22T07:33:45.564Z,43.1
2018-06-22T07:34:35.361Z,43.3
2018-06-22T07:35:25.706Z,43.5
2018-06-22T07:36:15.497Z,43.7
2018-06-22T07:37:05.841Z,43.8
2018-06-22T07:37:55.884Z,43.9
2018-06-22T07:38:45.968Z,44.1
2018-06-22T07:39:35.447Z,44.2
2018-06-22T07:40:26.089Z,44.3
2018-06-22T07:41:15.868Z,44.5
2018-06-22T07:42:06.228Z,44.6
2018-06-22T07:42:56.339Z,44.8
2018-06-22T07:43:46.326Z,44.9
2018-06-22T07:44:36.118Z,45.1
2018-06-22T07:45:26.479Z,45.2
2018-06-22T07:46:16.546Z,45.3
2018-06-22T07:47:06.617Z,45.4
2018-06-22T07:47:56.671Z,45.6
2018-06-22T07:48:46.722Z,45.7
2018-06-22T07:49:36.524Z,45.8
2018-06-22T07:50:26.568Z,45.9
2018-06-22T07:51:16.650Z,46.1
2018-06-22T07:52:06.991Z,46.3
2018-06-22T07:52:56.767Z,46.3
2018-06-22T07:53:47.122Z,46.4
2018-06-22T07:54:37.182Z,46.6
2018-06-22T07:55:27.246Z,46.7
2018-06-22T07:56:17.323Z,46.8
2018-06-22T07:57:07.413Z,46.9
2018-06-22T07:57:57.353Z,47.1
2018-06-22T07:58:47.509Z,47.2
2018-06-22T07:59:37.606Z,47.3
2018-06-22T08:00:27.688Z,47.4
2018-06-22T08:01:17.702Z,47.6
2018-06-22T08:02:07.759Z,47.6
2018-06-22T08:02:57.841Z,47.8
2018-06-22T08:03:47.612Z,47.9
2018-06-22T08:04:37.970Z,47.9
2018-06-22T08:05:28.027Z,48.1
2018-06-22T08:06:18.410Z,48.2
2018-06-22T08:07:08.153Z,48.3
2018-06-22T08:07:58.208Z,48.4
2018-06-22T08:08:48.298Z,48.5
2018-06-22T08:09:38.168Z,48.6
2018-06-22T08:10:28.431Z,48.8
2018-06-22T08:11:18.471Z,48.9
2018-06-22T08:12:08.288Z,48.9
2018-06-22T08:12:58.609Z,49.1
2018-06-22T08:13:48.419Z,49.1
2018-06-22T08:14:38.740Z,49.3
2018-06-22T08:15:28.523Z,49.4
2018-06-22T08:16:18.874Z,49.4
2018-06-22T08:17:08.927Z,49.6
2018-06-22T08:17:58.988Z,49.6
2018-06-22T08:18:49.063Z,49.8
2018-06-22T08:19:39.113Z,49.9
2018-06-22T08:20:29.185Z,49.9
2018-06-22T08:21:19.314Z,50.1
2018-06-22T08:22:09.324Z,50.2
2018-06-22T08:22:59.394Z,50.3
2018-06-22T08:23:49.461Z,50.3
2018-06-22T08:24:39.514Z,50.4
2018-06-22T08:25:29.566Z,50.6
2018-06-22T08:26:19.373Z,50.6
2018-06-22T08:27:09.716Z,50.7
2018-06-22T08:27:59.796Z,50.8
2018-06-22T08:28:49.557Z,50.9
2018-06-22T08:29:39.897Z,51.1
2018-06-22T08:30:29.961Z,51.1
2018-06-22T08:31:20.037Z,51.3
2018-06-22T08:32:09.845Z,51.3
2018-06-22T08:32:59.876Z,51.4
2018-06-22T08:33:50.024Z,51.5
2018-06-22T08:34:40.300Z,51.6
2018-06-22T08:35:30.093Z,51.8
2018-06-22T08:36:20.427Z,51.8
2018-06-22T08:37:10.487Z,51.9
2018-06-22T08:38:50.345Z,52.1
2018-06-22T08:39:40.400Z,52.1
2018-06-22T08:40:30.754Z,52.3
2018-06-22T08:41:20.807Z,52.3
2018-06-22T08:43:00.951Z,52.5
2018-06-22T08:43:51.023Z,52.6
2018-06-22T08:44:41.065Z,52.6
2018-06-22T08:45:31.148Z,52.7
2018-06-22T08:46:20.920Z,52.8
2018-06-22T08:47:11.263Z,53
2018-06-22T08:48:01.353Z,53.1
2018-06-22T08:48:51.528Z,53.1
2018-06-22T08:49:41.520Z,53.2
2018-06-22T08:50:31.244Z,53.3
2018-06-22T08:51:21.325Z,53.4
2018-06-22T08:52:11.372Z,53.4
2018-06-22T08:53:01.742Z,53.4
2018-06-22T08:53:51.804Z,53.6
2018-06-22T08:54:41.840Z,53.6
2018-06-22T08:55:31.634Z,53.8
2018-06-22T08:56:21.978Z,53.9
2018-06-22T08:57:11.781Z,53.9
2018-06-22T08:58:02.124Z,53.9
2018-06-22T08:58:52.169Z,54.1
2018-06-22T08:59:42.270Z,54.1
2018-06-22T09:00:32.022Z,54.3
2018-06-22T09:01:22.911Z,54.3
2018-06-22T09:02:12.440Z,54.4
2018-06-22T09:03:02.319Z,54.5
2018-06-22T09:03:52.569Z,54.6
2018-06-22T09:04:42.366Z,54.6
2018-06-22T09:05:32.717Z,54.7
2018-06-22T09:06:22.754Z,54.8
2018-06-22T09:07:12.841Z,54.9
2018-06-22T09:08:02.885Z,54.9
2018-06-22T09:08:52.956Z,55
2018-06-22T09:09:42.751Z,55.1
2018-06-22T09:10:33.081Z,55.2
2018-06-22T09:11:23.146Z,55.3
2018-06-22T09:12:13.216Z,55.4
2018-06-22T09:13:03.273Z,55.4
2018-06-22T09:13:53.358Z,55.5
2018-06-22T09:14:43.142Z,55.6
2018-06-22T09:15:33.466Z,55.7
2018-06-22T09:16:22.988Z,55.8
2018-06-22T09:17:13.614Z,55.8
2018-06-22T09:18:03.388Z,55.8
2018-06-22T09:18:53.747Z,56
2018-06-22T09:19:44.078Z,56.1
2018-06-22T09:20:33.861Z,56.2
2018-06-22T09:21:23.368Z,56.3
2018-06-22T09:22:14.007Z,56.3
2018-06-22T09:23:03.510Z,56.4
2018-06-22T09:23:54.117Z,56.4
2018-06-22T09:24:43.925Z,56.5
2018-06-22T09:25:34.259Z,56.6
2018-06-22T09:26:24.049Z,56.7
2018-06-22T09:27:14.382Z,56.8
2018-06-22T09:28:04.456Z,56.8
2018-06-22T09:28:54.533Z,56.9
2018-06-22T09:29:44.631Z,57
2018-06-22T09:30:34.374Z,57.1
2018-06-22T09:31:25.034Z,57.2
2018-06-22T09:32:14.804Z,57.3
2018-06-22T09:33:04.861Z,57.3
2018-06-22T09:33:54.942Z,57.4
2018-06-22T09:34:44.693Z,57.4
2018-06-22T09:35:35.057Z,57.5
2018-06-22T09:36:25.136Z,57.5
2018-06-22T09:37:15.189Z,57.6
2018-06-22T09:38:55.313Z,57.9
2018-06-22T09:39:45.384Z,57.9
2018-06-22T09:40:35.450Z,58
2018-06-22T09:41:25.510Z,58.1
2018-06-22T09:42:15.576Z,58.1
2018-06-22T09:43:05.628Z,58.2
2018-06-22T09:43:55.697Z,58.3
2018-06-22T09:44:45.747Z,58.4
2018-06-22T09:45:35.542Z,58.4
2018-06-22T09:47:15.959Z,58.6
2018-06-22T09:48:05.454Z,58.7
2018-06-22T09:48:55.823Z,58.8
2018-06-22T09:49:45.590Z,58.8
2018-06-22T09:50:35.939Z,58.9
2018-06-22T09:51:26.003Z,59
2018-06-22T09:52:16.357Z,59.1
2018-06-22T09:53:06.300Z,59.1
2018-06-22T09:53:56.201Z,59.2
2018-06-22T09:54:46.524Z,59.3
2018-06-22T09:55:36.315Z,59.4
2018-06-22T09:56:26.671Z,59.4
2018-06-22T09:57:16.460Z,59.6
2018-06-22T09:58:06.805Z,59.6
2018-06-22T09:58:56.586Z,59.6
2018-06-22T09:59:46.950Z,59.8
2018-06-22T10:00:36.723Z,59.9
2018-06-22T10:01:27.082Z,59.9
2018-06-22T10:02:17.538Z,60
2018-06-22T10:03:07.187Z,60.1
2018-06-22T10:03:57.000Z,60.1
2018-06-22T10:04:47.595Z,60.1
2018-06-22T10:05:36.828Z,60.1
2018-06-22T10:06:27.192Z,60.2
2018-06-22T10:07:17.524Z,60.3
2018-06-22T10:08:07.713Z,60.3
2018-06-22T10:08:57.634Z,60.3
2018-06-22T10:09:47.711Z,60.4
2018-06-22T10:10:37.766Z,60.3
2018-06-22T10:11:28.094Z,60.3
2018-06-22T10:12:17.613Z,60.3
2018-06-22T10:13:07.963Z,60.4
2018-06-22T10:13:58.020Z,60.5
2018-06-22T10:14:48.083Z,60.6
2018-06-22T10:15:38.165Z,60.7
2018-06-22T10:16:28.218Z,60.8
2018-06-22T10:17:18.316Z,60.9
2018-06-22T10:18:08.349Z,60.9
2018-06-22T10:18:58.452Z,61
2018-06-22T10:19:48.202Z,61.1
2018-06-22T10:20:38.562Z,61.3
2018-06-22T10:21:28.609Z,61.3
2018-06-22T10:22:18.706Z,61.4
2018-06-22T10:23:08.456Z,61.6
2018-06-22T10:23:58.558Z,61.6
2018-06-22T10:24:48.593Z,61.8
2018-06-22T10:25:38.950Z,61.8
2018-06-22T10:26:28.753Z,61.9
2018-06-22T10:27:18.935Z,61.9
2018-06-22T10:28:09.146Z,62.1
2018-06-22T10:28:58.930Z,62.1
2018-06-22T10:29:49.281Z,62.2
2018-06-22T10:30:39.062Z,62.3
2018-06-22T10:31:29.427Z,62.3
2018-06-22T10:32:19.453Z,62.4
2018-06-22T10:33:08.961Z,62.3
2018-06-22T10:33:59.760Z,61.9
2018-06-22T10:34:49.367Z,61.7
2018-06-22T10:35:39.456Z,61.5
2018-06-22T10:36:29.780Z,61.3
2018-06-22T10:37:19.888Z,61.1
2018-06-22T10:38:09.664Z,60.9
2018-06-22T10:38:59.975Z,60.7
2018-06-22T10:39:50.040Z,60.6
2018-06-22T10:40:40.113Z,60.6
2018-06-22T10:41:30.200Z,60.9
2018-06-22T10:42:20.243Z,61.2
2018-06-22T10:43:10.309Z,61.4
2018-06-22T10:44:00.389Z,61.6
2018-06-22T10:44:50.450Z,61.9
2018-06-22T10:45:40.382Z,62.1
2018-06-22T10:46:30.579Z,62.3
2018-06-22T10:47:20.630Z,62.4
2018-06-22T10:48:10.420Z,62.4
2018-06-22T10:49:00.782Z,62.1
2018-06-22T10:49:50.265Z,61.9
2018-06-22T10:50:40.912Z,61.7
2018-06-22T10:51:31.160Z,61.6
2018-06-22T10:52:20.737Z,61.6
2018-06-22T10:53:10.824Z,61.7
2018-06-22T10:54:00.877Z,61.8
2018-06-22T10:54:51.221Z,61.8
2018-06-22T10:55:41.280Z,61.7
2018-06-22T10:56:31.365Z,61.6
2018-06-22T10:57:21.138Z,61.4
2018-06-22T10:58:11.520Z,61.3
2018-06-22T10:59:01.539Z,61.1
2018-06-22T10:59:52.164Z,60.9
2018-06-22T11:00:41.673Z,60.8
2018-06-22T11:01:31.470Z,60.8
2018-06-22T11:02:21.796Z,60.6
2018-06-22T11:03:11.887Z,60.5
2018-06-22T11:04:01.941Z,60.4
2018-06-22T11:04:51.989Z,60.3
2018-06-22T11:05:42.311Z,60.2
2018-06-22T11:06:32.122Z,60.1
2018-06-22T11:07:21.911Z,60
2018-06-22T11:08:12.255Z,59.9
2018-06-22T11:09:02.321Z,59.8
2018-06-22T11:09:52.419Z,59.7
2018-06-22T11:10:42.451Z,59.6
2018-06-22T11:11:32.528Z,59.5
2018-06-22T11:12:22.588Z,59.4
2018-06-22T11:13:12.379Z,59.3
2018-06-22T11:14:03.076Z,59.3
2018-06-22T11:14:52.783Z,59.1
2018-06-22T11:15:42.883Z,59.1
2018-06-22T11:16:32.971Z,58.9
2018-06-22T11:17:23.279Z,58.8
2018-06-22T11:18:13.143Z,58.8
2018-06-22T11:19:03.113Z,58.6
2018-06-22T11:19:52.906Z,58.5
2018-06-22T11:20:43.246Z,58.4
2018-06-22T11:21:33.323Z,58.4
2018-06-22T11:22:23.380Z,58.1
2018-06-22T11:23:13.164Z,57.6
2018-06-22T11:24:03.499Z,57.1
2018-06-22T11:24:53.571Z,56.6
2018-06-22T11:25:43.635Z,56.1
2018-06-22T11:26:33.709Z,55.6
2018-06-22T11:27:23.636Z,55.1
2018-06-22T11:28:13.836Z,54.4
2018-06-22T11:29:03.882Z,53.9
2018-06-22T11:29:53.964Z,53.3
2018-06-22T11:30:44.189Z,52.6
2018-06-22T11:31:34.082Z,52
2018-06-22T11:32:24.139Z,51.4
2018-06-22T11:33:13.945Z,50.7
2018-06-22T11:34:04.281Z,50.1
2018-06-22T11:34:54.067Z,49.5
2018-06-22T11:35:44.624Z,48.9
2018-06-22T11:36:34.464Z,48.3
2018-06-22T11:37:24.538Z,47.8
2018-06-22T11:38:14.593Z,47.2
2018-06-22T11:39:04.374Z,46.6
2018-06-22T11:39:54.713Z,46.1
2018-06-22T11:40:44.779Z,45.6
2018-06-22T11:41:34.867Z,45.1
2018-06-22T11:42:24.913Z,44.6
2018-06-22T11:43:14.978Z,44.1
2018-06-22T11:44:04.784Z,43.6
2018-06-22T11:44:55.124Z,43.1
2018-06-22T11:45:45.174Z,42.6
2018-06-22T11:46:35.254Z,42.1
2018-06-22T11:47:25.368Z,41.7
2018-06-22T11:48:15.361Z,41.2
2018-06-22T11:49:05.436Z,40.8
2018-06-22T11:49:55.511Z,40.3
2018-06-22T11:50:45.578Z,39.8
2018-06-22T11:51:35.081Z,39.4
2018-06-22T11:52:25.696Z,38.9
2018-06-22T11:53:15.481Z,38.4
2018-06-22T11:54:05.816Z,38
2018-06-22T11:54:55.878Z,37.6
2018-06-22T11:55:45.950Z,37.1
2018-06-22T11:56:35.734Z,36.6
2018-06-22T11:57:25.806Z,36.3
2018-06-22T11:58:16.160Z,35.8
2018-06-22T11:59:06.451Z,35.4
2018-06-22T11:59:56.261Z,35
2018-06-22T12:00:46.383Z,34.7
2018-06-22T12:01:36.485Z,34.3
2018-06-22T12:02:26.452Z,33.9
2018-06-22T12:03:16.523Z,33.6
2018-06-22T12:04:06.635Z,33.3
2018-06-22T12:04:56.671Z,32.9
2018-06-22T12:05:46.723Z,32.6
2018-06-22T12:06:36.777Z,32.3
2018-06-22T12:07:26.849Z,32
2018-06-22T12:08:16.911Z,31.7
2018-06-22T12:09:06.978Z,31.4
2018-06-22T12:09:57.063Z,31.1
2018-06-22T12:10:47.125Z,30.9
2018-06-22T12:11:36.899Z,30.6
2018-06-22T12:12:27.241Z,30.4
2018-06-22T12:13:17.324Z,30.1
2018-06-22T12:14:07.380Z,29.9
2018-06-22T12:14:57.437Z,29.6
2018-06-22T12:15:47.500Z,29.4
2018-06-22T12:16:37.570Z,29.2
2018-06-22T12:17:27.621Z,28.9
2018-06-22T12:18:17.686Z,28.8
2018-06-22T12:19:07.615Z,28.5
2018-06-22T12:19:57.825Z,28.3
2018-06-22T12:20:47.915Z,28.1
2018-06-22T12:21:37.949Z,27.9
2018-06-22T12:22:27.730Z,27.8
2018-06-22T12:23:17.811Z,27.6
2018-06-22T12:24:08.159Z,27.4
2018-06-22T12:24:58.201Z,27.3
2018-06-22T12:25:47.993Z,27.2
2018-06-22T12:26:38.058Z,27.1
2018-06-22T12:27:28.400Z,26.9
2018-06-22T12:28:18.470Z,26.9
2018-06-22T12:29:08.245Z,26.8
2018-06-22T12:29:58.589Z,26.6
2018-06-22T12:30:48.706Z,26.5
2018-06-22T12:31:38.731Z,26.4
2018-06-22T12:32:28.514Z,26.3
2018-06-22T12:33:18.596Z,26.1
2018-06-22T12:34:08.972Z,26
2018-06-22T12:34:58.709Z,25.9
2018-06-22T12:35:48.773Z,25.8
2018-06-22T12:36:39.108Z,25.7
2018-06-22T12:37:29.177Z,25.6
2018-06-22T12:38:19.245Z,25.5
2018-06-22T12:39:09.017Z,25.4
2018-06-22T12:39:59.369Z,25.4
2018-06-22T12:40:49.439Z,25.4
2018-06-22T12:41:39.492Z,25.4
2018-06-22T12:42:29.574Z,25.3
2018-06-22T12:43:19.689Z,25.3
2018-06-22T12:44:09.676Z,25.3
2018-06-22T12:44:59.921Z,25.3
2018-06-22T12:45:49.544Z,25.3
2018-06-22T12:46:39.888Z,25.3
2018-06-22T12:47:29.944Z,25.4
2018-06-22T12:48:20.025Z,25.4
2018-06-22T12:49:10.072Z,25.4
2018-06-22T12:49:59.869Z,25.5
2018-06-22T12:50:49.924Z,25.6
2018-06-22T12:51:39.995Z,25.7
2018-06-22T12:52:30.052Z,25.8
2018-06-22T12:53:20.160Z,25.9
2018-06-22T12:54:09.903Z,26.1
2018-06-22T12:55:00.568Z,26.2
2018-06-22T12:55:50.332Z,26.4
2018-06-22T12:56:40.677Z,26.6
2018-06-22T12:57:30.835Z,26.8
2018-06-22T12:58:20.787Z,26.9
2018-06-22T12:59:10.889Z,27.2
2018-06-22T13:00:00.664Z,27.4
2018-06-22T13:00:51.007Z,27.6
2018-06-22T13:01:41.082Z,27.8
2018-06-22T13:02:31.155Z,28
2018-06-22T13:03:21.190Z,28.2
2018-06-22T13:04:10.970Z,28.4
2018-06-22T13:05:01.351Z,28.6
2018-06-22T13:05:51.385Z,28.8
2018-06-22T13:06:41.439Z,29
2018-06-22T13:07:31.507Z,29.2
2018-06-22T13:08:21.300Z,29.4
2018-06-22T13:09:11.383Z,29.6
2018-06-22T13:10:01.687Z,29.8
2018-06-22T13:10:51.767Z,29.9
2018-06-22T13:11:41.830Z,30.1
2018-06-22T13:12:32.046Z,30.3
2018-06-22T13:13:21.689Z,30.4
2018-06-22T13:14:12.018Z,30.6
2018-06-22T13:15:02.076Z,30.8
2018-06-22T13:15:52.140Z,30.9
2018-06-22T13:16:42.201Z,31
2018-06-22T13:17:31.994Z,31.1
2018-06-22T13:18:22.329Z,31.2
2018-06-22T13:19:12.422Z,31.3
2018-06-22T13:20:02.480Z,31.4
2018-06-22T13:20:52.250Z,31.5
2018-06-22T13:21:42.620Z,31.6
2018-06-22T13:22:32.095Z,31.7
2018-06-22T13:23:22.443Z,31.8
2018-06-22T13:24:12.831Z,31.9
2018-06-22T13:25:02.857Z,31.9
2018-06-22T13:25:52.906Z,32
2018-06-22T13:26:42.988Z,32.1
2018-06-22T13:27:33.036Z,32.1
2018-06-22T13:28:23.115Z,32.2
2018-06-22T13:29:13.156Z,32.3
2018-06-22T13:30:03.231Z,32.3
2018-06-22T13:30:53.426Z,32.4
2018-06-22T13:31:43.353Z,32.5
2018-06-22T13:32:33.156Z,32.6
2018-06-22T13:33:23.210Z,32.7
2018-06-22T13:34:13.557Z,32.7
2018-06-22T13:35:03.620Z,32.8
2018-06-22T13:35:53.678Z,32.8
2018-06-22T13:36:43.756Z,32.9
2018-06-22T13:37:33.814Z,33
2018-06-22T13:38:23.876Z,33.1
2018-06-22T13:39:13.665Z,33.2
2018-06-22T13:40:04.007Z,33.3
2018-06-22T13:40:54.079Z,33.4
2018-06-22T13:41:43.860Z,33.6
2018-06-22T13:42:34.206Z,33.8
2018-06-22T13:43:24.259Z,33.9
2018-06-22T13:44:14.343Z,34.1
2018-06-22T13:45:04.412Z,34.3
2018-06-22T13:45:54.464Z,34.6
2018-06-22T13:46:43.976Z,34.8
2018-06-22T13:47:34.599Z,35
2018-06-22T13:48:24.653Z,35.3
2018-06-22T13:49:14.733Z,35.5
2018-06-22T13:50:04.550Z,35.8
2018-06-22T13:50:54.560Z,35.9
2018-06-22T13:51:44.912Z,36.2
2018-06-22T13:52:35.011Z,36.3
2018-06-22T13:53:25.045Z,36.5
2018-06-22T13:54:15.123Z,36.7
2018-06-22T13:55:04.683Z,36.8
2018-06-22T13:55:54.952Z,37
2018-06-22T13:56:45.491Z,37.1
2018-06-22T13:57:35.522Z,37.3
2018-06-22T13:58:25.430Z,37.3
2018-06-22T13:59:15.225Z,37.4
2018-06-22T14:00:05.580Z,37.5
2018-06-22T14:00:55.683Z,37.6
2018-06-22T14:01:45.681Z,37.6
2018-06-22T14:02:35.470Z,37.7
2018-06-22T14:03:25.821Z,37.7
2018-06-22T14:04:15.941Z,37.7
2018-06-22T14:05:05.941Z,37.8
2018-06-22T14:05:56.029Z,37.8
2018-06-22T14:06:45.505Z,37.8
2018-06-22T14:07:35.874Z,37.8
2018-06-22T14:08:26.200Z,37.8
2018-06-22T14:09:16.421Z,37.7
2018-06-22T14:10:06.336Z,37.7
2018-06-22T14:10:56.410Z,37.7
2018-06-22T14:11:46.492Z,37.6
2018-06-22T14:12:36.032Z,37.6
2018-06-22T14:13:26.584Z,37.6
2018-06-22T14:14:16.673Z,37.6
2018-06-22T14:15:06.717Z,37.6
2018-06-22T14:15:56.783Z,37.5
2018-06-22T14:16:46.861Z,37.5
2018-06-22T14:17:36.913Z,37.5
2018-06-22T14:18:26.987Z,37.5
2018-06-22T14:19:17.038Z,37.4
2018-06-22T14:20:07.320Z,37.4
2018-06-22T14:20:57.171Z,37.4
2018-06-22T14:21:47.266Z,37.4
2018-06-22T14:22:37.303Z,37.4
2018-06-22T14:23:27.356Z,37.3
2018-06-22T14:24:17.449Z,37.3
2018-06-22T14:25:07.492Z,37.3
2018-06-22T14:25:57.553Z,37.2
2018-06-22T14:26:47.631Z,37.2
2018-06-22T14:27:37.400Z,37.1
2018-06-22T14:28:27.476Z,37.1
2018-06-22T14:29:17.820Z,37.1
2018-06-22T14:30:07.883Z,37.1
2018-06-22T14:30:58.162Z,37
2018-06-22T14:31:48.022Z,36.9
2018-06-22T14:32:38.059Z,36.9
2018-06-22T14:33:27.869Z,36.9
2018-06-22T14:34:17.921Z,36.9
2018-06-22T14:35:08.278Z,36.9
2018-06-22T14:35:58.041Z,36.9
2018-06-22T14:36:48.408Z,36.9
2018-06-22T14:37:38.180Z,36.9
2018-06-22T14:38:28.263Z,36.9
2018-06-22T14:39:18.308Z,36.9
2018-06-22T14:40:08.650Z,36.9
2018-06-22T14:40:58.728Z,37.1
2018-06-22T14:41:48.521Z,37.1
2018-06-22T14:42:38.857Z,37.2
2018-06-22T14:43:29.343Z,37.3
2018-06-22T14:44:18.995Z,37.4
2018-06-22T14:45:09.053Z,37.6
2018-06-22T14:45:58.835Z,37.7
2018-06-22T14:46:49.244Z,37.8
2018-06-22T14:47:38.952Z,37.9
2018-06-22T14:48:29.317Z,38
2018-06-22T14:49:19.088Z,38.1
2018-06-22T14:50:09.550Z,38.3